sensor_id;sensor_type;location;lat;lon;timestamp;pressure;altitude;pressure_sealevel;temperature;humidity
77041;BME280;65974;42.664;23.264;2023-02-12T00:00:38;95326.69;;;0.98;38.85
77041;BME280;65974;42.664;23.264;2023-02-12T00:03:03;95319.38;;;0.95;39.61
77041;BME280;65974;42.664;23.264;2023-02-12T00:05:29;95327.34;;;0.90;39.41
77041;BME280;65974;42.664;23.264;2023-02-12T00:07:54;95329.31;;;0.84;39.50
77041;BME280;65974;42.664;23.264;2023-02-12T00:10:20;95329.78;;;0.86;39.25
77041;BME280;65974;42.664;23.264;2023-02-12T00:12:45;95338.13;;;0.88;39.50
77041;BME280;65974;42.664;23.264;2023-02-12T00:15:11;95327.66;;;0.88;39.66
77041;BME280;65974;42.664;23.264;2023-02-12T00:17:36;95333.69;;;0.89;39.44
77041;BME280;65974;42.664;23.264;2023-02-12T00:20:02;95332.00;;;0.93;40.00
77041;BME280;65974;42.664;23.264;2023-02-12T00:22:28;95329.69;;;0.91;39.17
77041;BME280;65974;42.664;23.264;2023-02-12T00:24:54;95327.94;;;0.87;40.19
77041;BME280;65974;42.664;23.264;2023-02-12T00:27:20;95326.13;;;0.87;39.90
77041;BME280;65974;42.664;23.264;2023-02-12T00:29:45;95328.63;;;0.92;40.07
77041;BME280;65974;42.664;23.264;2023-02-12T00:32:11;95318.44;;;0.91;40.30
77041;BME280;65974;42.664;23.264;2023-02-12T00:34:38;95312.88;;;0.92;39.77
77041;BME280;65974;42.664;23.264;2023-02-12T00:37:04;95320.56;;;0.89;40.19
77041;BME280;65974;42.664;23.264;2023-02-12T00:39:29;95305.41;;;0.86;40.89
77041;BME280;65974;42.664;23.264;2023-02-12T00:41:54;95296.97;;;0.89;39.69
77041;BME280;65974;42.664;23.264;2023-02-12T00:44:20;95289.59;;;0.91;40.14
77041;BME280;65974;42.664;23.264;2023-02-12T00:46:45;95283.38;;;0.87;40.56
77041;BME280;65974;42.664;23.264;2023-02-12T00:49:10;95284.91;;;0.88;40.31
77041;BME280;65974;42.664;23.264;2023-02-12T00:51:36;95276.09;;;0.84;40.55
77041;BME280;65974;42.664;23.264;2023-02-12T00:54:01;95274.84;;;0.81;40.61
77041;BME280;65974;42.664;23.264;2023-02-12T00:56:27;95272.72;;;0.83;40.08
77041;BME280;65974;42.664;23.264;2023-02-12T00:58:53;95270.84;;;0.84;40.78
77041;BME280;65974;42.664;23.264;2023-02-12T01:01:19;95258.03;;;0.82;41.42
77041;BME280;65974;42.664;23.264;2023-02-12T01:03:44;95263.75;;;0.84;40.16
77041;BME280;65974;42.664;23.264;2023-02-12T01:06:09;95258.63;;;0.79;40.80
77041;BME280;65974;42.664;23.264;2023-02-12T01:08:35;95258.75;;;0.74;41.59
77041;BME280;65974;42.664;23.264;2023-02-12T01:11:02;95260.97;;;0.81;41.09
77041;BME280;65974;42.664;23.264;2023-02-12T01:13:29;95259.09;;;0.81;41.15
77041;BME280;65974;42.664;23.264;2023-02-12T01:16:05;95260.34;;;0.84;41.00
77041;BME280;65974;42.664;23.264;2023-02-12T01:18:33;95259.88;;;0.82;40.74
77041;BME280;65974;42.664;23.264;2023-02-12T01:20:59;95253.28;;;0.84;41.78
77041;BME280;65974;42.664;23.264;2023-02-12T01:23:26;95267.03;;;0.90;40.48
77041;BME280;65974;42.664;23.264;2023-02-12T01:25:52;95275.69;;;0.90;40.91
77041;BME280;65974;42.664;23.264;2023-02-12T01:28:17;95276.16;;;0.92;41.76
77041;BME280;65974;42.664;23.264;2023-02-12T01:30:43;95280.34;;;0.93;41.66
77041;BME280;65974;42.664;23.264;2023-02-12T01:33:08;95281.63;;;0.96;41.24
77041;BME280;65974;42.664;23.264;2023-02-12T01:35:35;95280.34;;;0.93;41.50
77041;BME280;65974;42.664;23.264;2023-02-12T01:38:01;95280.34;;;0.93;42.10
77041;BME280;65974;42.664;23.264;2023-02-12T01:40:26;95273.06;;;0.90;41.38
77041;BME280;65974;42.664;23.264;2023-02-12T01:42:52;95271.72;;;0.93;41.64
77041;BME280;65974;42.664;23.264;2023-02-12T01:48:06;95267.81;;;0.90;42.52
77041;BME280;65974;42.664;23.264;2023-02-12T01:50:31;95255.13;;;0.84;42.81
77041;BME280;65974;42.664;23.264;2023-02-12T01:52:57;95259.78;;;0.87;42.70
77041;BME280;65974;42.664;23.264;2023-02-12T01:55:23;95247.56;;;0.82;42.80
77041;BME280;65974;42.664;23.264;2023-02-12T01:57:49;95255.53;;;0.77;43.44
77041;BME280;65974;42.664;23.264;2023-02-12T02:00:20;95254.78;;;0.76;43.57
77041;BME280;65974;42.664;23.264;2023-02-12T02:02:49;95258.16;;;0.77;43.36
77041;BME280;65974;42.664;23.264;2023-02-12T02:05:42;95261.84;;;0.76;43.46
77041;BME280;65974;42.664;23.264;2023-02-12T02:08:05;95258.75;;;0.74;43.07
77041;BME280;65974;42.664;23.264;2023-02-12T02:10:30;95247.31;;;0.70;43.20
77041;BME280;65974;42.664;23.264;2023-02-12T02:12:56;95253.50;;;0.74;43.00
77041;BME280;65974;42.664;23.264;2023-02-12T02:15:54;95260.41;;;0.70;43.59
77041;BME280;65974;42.664;23.264;2023-02-12T02:18:52;95258.84;;;0.69;43.96
77041;BME280;65974;42.664;23.264;2023-02-12T02:21:50;95240.03;;;0.67;44.31
77041;BME280;65974;42.664;23.264;2023-02-12T02:32:22;95238.97;;;0.68;44.96
77041;BME280;65974;42.664;23.264;2023-02-12T02:35:09;95237.56;;;0.70;45.13
77041;BME280;65974;42.664;23.264;2023-02-12T02:37:46;95241.59;;;0.68;44.78
77041;BME280;65974;42.664;23.264;2023-02-12T02:40:17;95238.66;;;0.69;45.88
77041;BME280;65974;42.664;23.264;2023-02-12T02:45:27;95257.66;;;0.75;46.28
77041;BME280;65974;42.664;23.264;2023-02-12T02:48:02;95247.56;;;0.82;46.31
77041;BME280;65974;42.664;23.264;2023-02-12T02:50:31;95253.59;;;0.83;46.12
77041;BME280;65974;42.664;23.264;2023-02-12T02:53:11;95254.38;;;0.83;46.26
77041;BME280;65974;42.664;23.264;2023-02-12T02:55:43;95246.97;;;0.85;46.14
77041;BME280;65974;42.664;23.264;2023-02-12T02:58:19;95252.63;;;0.78;45.65
77041;BME280;65974;42.664;23.264;2023-02-12T03:00:58;95252.03;;;0.82;46.86
77041;BME280;65974;42.664;23.264;2023-02-12T03:06:14;95241.44;;;0.87;46.80
77041;BME280;65974;42.664;23.264;2023-02-12T03:08:51;95252.97;;;0.86;47.08
77041;BME280;65974;42.664;23.264;2023-02-12T03:11:24;95252.41;;;0.89;46.97
77041;BME280;65974;42.664;23.264;2023-02-12T03:13:58;95255.97;;;0.93;47.16
77041;BME280;65974;42.664;23.264;2023-02-12T03:16:39;95261.22;;;0.93;46.71
77041;BME280;65974;42.664;23.264;2023-02-12T03:19:19;95252.63;;;1.01;46.54
77041;BME280;65974;42.664;23.264;2023-02-12T03:21:59;95252.38;;;1.02;47.53
77041;BME280;65974;42.664;23.264;2023-02-12T03:24:32;95247.75;;;1.08;47.22
77041;BME280;65974;42.664;23.264;2023-02-12T03:27:09;95247.47;;;1.09;46.82
77041;BME280;65974;42.664;23.264;2023-02-12T03:29:38;95243.78;;;1.10;47.29
77041;BME280;65974;42.664;23.264;2023-02-12T03:32:10;95234.06;;;1.11;47.39
77041;BME280;65974;42.664;23.264;2023-02-12T03:37:30;95231.94;;;1.13;46.97
77041;BME280;65974;42.664;23.264;2023-02-12T03:42:52;95237.34;;;1.16;47.63
77041;BME280;65974;42.664;23.264;2023-02-12T03:48:05;95232.25;;;1.20;47.37
77041;BME280;65974;42.664;23.264;2023-02-12T03:53:16;95225.47;;;1.19;48.02
77041;BME280;65974;42.664;23.264;2023-02-12T03:55:45;95234.41;;;1.18;47.75
77041;BME280;65974;42.664;23.264;2023-02-12T03:58:18;95235.19;;;1.18;48.03
77041;BME280;65974;42.664;23.264;2023-02-12T04:00:45;95236.25;;;1.17;48.20
77041;BME280;65974;42.664;23.264;2023-02-12T04:03:11;95239.00;;;1.12;48.65
77041;BME280;65974;42.664;23.264;2023-02-12T04:05:37;95236.38;;;1.12;48.00
77041;BME280;65974;42.664;23.264;2023-02-12T04:08:05;95224.69;;;1.18;48.22
77041;BME280;65974;42.664;23.264;2023-02-12T04:18:14;95229.34;;;1.21;47.51
77041;BME280;65974;42.664;23.264;2023-02-12T04:21:00;95244.50;;;1.24;47.09
77041;BME280;65974;42.664;23.264;2023-02-12T04:26:23;95253.19;;;1.33;46.97
77041;BME280;65974;42.664;23.264;2023-02-12T04:29:00;95249.97;;;1.36;46.83
77041;BME280;65974;42.664;23.264;2023-02-12T04:31:48;95250.16;;;1.40;47.01
77041;BME280;65974;42.664;23.264;2023-02-12T04:36:56;95249.78;;;1.33;47.51
77041;BME280;65974;42.664;23.264;2023-02-12T04:39:28;95252.25;;;1.29;47.08
77041;BME280;65974;42.664;23.264;2023-02-12T04:41:59;95253.63;;;1.27;46.88
77041;BME280;65974;42.664;23.264;2023-02-12T04:44:27;95260.13;;;1.29;47.67
77041;BME280;65974;42.664;23.264;2023-02-12T04:46:53;95264.28;;;1.30;46.80
77041;BME280;65974;42.664;23.264;2023-02-12T04:49:20;95269.84;;;1.29;46.76
77041;BME280;65974;42.664;23.264;2023-02-12T04:51:46;95270.88;;;1.28;46.99
77041;BME280;65974;42.664;23.264;2023-02-12T04:54:13;95274.59;;;1.27;45.70
77041;BME280;65974;42.664;23.264;2023-02-12T04:56:39;95276.13;;;1.28;46.77
77041;BME280;65974;42.664;23.264;2023-02-12T04:59:04;95276.66;;;1.30;46.89
77041;BME280;65974;42.664;23.264;2023-02-12T05:01:32;95289.94;;;1.33;46.58
77041;BME280;65974;42.664;23.264;2023-02-12T05:03:58;95286.41;;;1.38;47.01
77041;BME280;65974;42.664;23.264;2023-02-12T05:06:24;95283.78;;;1.38;46.15
77041;BME280;65974;42.664;23.264;2023-02-12T05:08:51;95279.59;;;1.37;46.56
77041;BME280;65974;42.664;23.264;2023-02-12T05:11:17;95291.19;;;1.36;46.68
77041;BME280;65974;42.664;23.264;2023-02-12T05:13:42;95288.56;;;1.36;46.29
77041;BME280;65974;42.664;23.264;2023-02-12T05:16:08;95296.53;;;1.31;46.85
77041;BME280;65974;42.664;23.264;2023-02-12T05:18:34;95299.75;;;1.28;47.19
77041;BME280;65974;42.664;23.264;2023-02-12T05:21:02;95297.13;;;1.28;47.65
77041;BME280;65974;42.664;23.264;2023-02-12T05:23:29;95317.78;;;1.21;48.88
77041;BME280;65974;42.664;23.264;2023-02-12T05:25:57;95309.03;;;1.12;48.49
77041;BME280;65974;42.664;23.264;2023-02-12T05:28:23;95323.03;;;1.07;48.74
77041;BME280;65974;42.664;23.264;2023-02-12T05:30:48;95330.06;;;0.98;50.09
77041;BME280;65974;42.664;23.264;2023-02-12T05:33:13;95326.47;;;0.94;51.92
77041;BME280;65974;42.664;23.264;2023-02-12T05:35:39;95326.22;;;0.82;51.99
77041;BME280;65974;42.664;23.264;2023-02-12T05:38:04;95329.63;;;0.69;52.28
77041;BME280;65974;42.664;23.264;2023-02-12T05:40:30;95328.97;;;0.63;53.48
77041;BME280;65974;42.664;23.264;2023-02-12T05:42:55;95333.22;;;0.59;53.96
77041;BME280;65974;42.664;23.264;2023-02-12T05:45:20;95326.41;;;0.45;54.24
77041;BME280;65974;42.664;23.264;2023-02-12T05:47:52;95342.56;;;0.38;54.22
77041;BME280;65974;42.664;23.264;2023-02-12T05:50:17;95343.59;;;0.37;54.60
77041;BME280;65974;42.664;23.264;2023-02-12T05:52:43;95354.38;;;0.36;55.36
77041;BME280;65974;42.664;23.264;2023-02-12T05:55:08;95343.69;;;0.32;56.29
77041;BME280;65974;42.664;23.264;2023-02-12T05:57:34;95345.25;;;0.33;56.19
77041;BME280;65974;42.664;23.264;2023-02-12T05:59:59;95355.81;;;0.28;56.99
77041;BME280;65974;42.664;23.264;2023-02-12T06:02:27;95345.94;;;0.25;57.94
77041;BME280;65974;42.664;23.264;2023-02-12T06:04:53;95350.19;;;0.21;58.43
77041;BME280;65974;42.664;23.264;2023-02-12T06:07:18;95362.59;;;0.16;59.05
77041;BME280;65974;42.664;23.264;2023-02-12T06:09:44;95353.19;;;0.15;59.39
77041;BME280;65974;42.664;23.264;2023-02-12T06:12:09;95349.19;;;0.17;60.07
77041;BME280;65974;42.664;23.264;2023-02-12T06:14:35;95351.63;;;0.14;60.39
77041;BME280;65974;42.664;23.264;2023-02-12T06:17:00;95342.22;;;0.13;61.26
77041;BME280;65974;42.664;23.264;2023-02-12T06:19:25;95347.19;;;0.14;61.12
77041;BME280;65974;42.664;23.264;2023-02-12T06:21:51;95345.81;;;0.17;61.17
77041;BME280;65974;42.664;23.264;2023-02-12T06:24:17;95354.97;;;0.19;62.50
77041;BME280;65974;42.664;23.264;2023-02-12T06:26:43;95347.00;;;0.11;64.28
77041;BME280;65974;42.664;23.264;2023-02-12T06:29:09;95348.59;;;0.07;64.53
77041;BME280;65974;42.664;23.264;2023-02-12T06:31:35;95358.41;;;0.01;66.82
77041;BME280;65974;42.664;23.264;2023-02-12T06:34:04;95354.13;;;-0.09;67.24
77041;BME280;65974;42.664;23.264;2023-02-12T06:36:30;95338.00;;;-0.16;67.62
77041;BME280;65974;42.664;23.264;2023-02-12T06:38:55;95342.38;;;-0.11;67.52
77041;BME280;65974;42.664;23.264;2023-02-12T06:41:22;95349.16;;;-0.10;67.06
77041;BME280;65974;42.664;23.264;2023-02-12T06:43:47;95356.03;;;-0.14;66.77
77041;BME280;65974;42.664;23.264;2023-02-12T06:46:13;95359.44;;;-0.14;67.54
77041;BME280;65974;42.664;23.264;2023-02-12T06:48:39;95354.97;;;-0.13;68.29
77041;BME280;65974;42.664;23.264;2023-02-12T06:53:34;95352.75;;;-0.06;67.36
77041;BME280;65974;42.664;23.264;2023-02-12T06:56:04;95353.94;;;0.02;66.97
77041;BME280;65974;42.664;23.264;2023-02-12T06:58:29;95361.69;;;0.07;66.65
77041;BME280;65974;42.664;23.264;2023-02-12T07:00:55;95363.25;;;0.08;66.78
77041;BME280;65974;42.664;23.264;2023-02-12T07:03:20;95364.16;;;0.17;66.05
77041;BME280;65974;42.664;23.264;2023-02-12T07:05:46;95363.28;;;0.21;65.33
77041;BME280;65974;42.664;23.264;2023-02-12T07:08:13;95360.38;;;0.23;65.04
77041;BME280;65974;42.664;23.264;2023-02-12T07:10:38;95354.34;;;0.22;65.38
77041;BME280;65974;42.664;23.264;2023-02-12T07:13:04;95351.19;;;0.25;65.11
77041;BME280;65974;42.664;23.264;2023-02-12T07:15:29;95352.94;;;0.30;64.81
77041;BME280;65974;42.664;23.264;2023-02-12T07:17:55;95355.91;;;0.37;64.82
77041;BME280;65974;42.664;23.264;2023-02-12T07:20:21;95349.31;;;0.39;64.49
77041;BME280;65974;42.664;23.264;2023-02-12T07:22:46;95353.78;;;0.39;64.58
77041;BME280;65974;42.664;23.264;2023-02-12T07:25:12;95353.88;;;0.47;64.63
77041;BME280;65974;42.664;23.264;2023-02-12T07:27:37;95353.50;;;0.54;64.55
77041;BME280;65974;42.664;23.264;2023-02-12T07:30:07;95358.47;;;0.55;64.85
77041;BME280;65974;42.664;23.264;2023-02-12T07:32:33;95366.03;;;0.57;63.79
77041;BME280;65974;42.664;23.264;2023-02-12T07:34:58;95351.56;;;0.59;64.26
77041;BME280;65974;42.664;23.264;2023-02-12T07:37:24;95363.59;;;0.60;64.22
77041;BME280;65974;42.664;23.264;2023-02-12T07:39:50;95363.59;;;0.60;63.79
77041;BME280;65974;42.664;23.264;2023-02-12T07:42:16;95363.41;;;0.57;63.43
77041;BME280;65974;42.664;23.264;2023-02-12T07:44:42;95364.88;;;0.63;63.71
77041;BME280;65974;42.664;23.264;2023-02-12T07:47:07;95373.50;;;0.63;64.34
77041;BME280;65974;42.664;23.264;2023-02-12T07:49:32;95384.97;;;0.67;63.73
77041;BME280;65974;42.664;23.264;2023-02-12T07:51:58;95379.91;;;0.71;64.24
77041;BME280;65974;42.664;23.264;2023-02-12T07:54:23;95384.84;;;0.72;64.25
77041;BME280;65974;42.664;23.264;2023-02-12T07:56:49;95384.09;;;0.72;64.24
77041;BME280;65974;42.664;23.264;2023-02-12T07:59:16;95381.75;;;0.70;64.41
77041;BME280;65974;42.664;23.264;2023-02-12T08:01:48;95386.81;;;0.67;64.41
77041;BME280;65974;42.664;23.264;2023-02-12T08:04:16;95391.25;;;0.66;64.84
77041;BME280;65974;42.664;23.264;2023-02-12T08:06:44;95397.00;;;0.68;65.25
77041;BME280;65974;42.664;23.264;2023-02-12T08:09:13;95391.75;;;0.68;65.18
77041;BME280;65974;42.664;23.264;2023-02-12T08:11:40;95388.94;;;0.65;65.53
77041;BME280;65974;42.664;23.264;2023-02-12T08:14:06;95394.00;;;0.61;65.76
77041;BME280;65974;42.664;23.264;2023-02-12T08:16:36;95393.03;;;0.57;65.72
77041;BME280;65974;42.664;23.264;2023-02-12T08:19:02;95389.63;;;0.57;66.62
77041;BME280;65974;42.664;23.264;2023-02-12T08:21:53;95394.75;;;0.48;66.58
77041;BME280;65974;42.664;23.264;2023-02-12T08:24:19;95397.94;;;0.45;66.31
77041;BME280;65974;42.664;23.264;2023-02-12T08:26:46;95406.59;;;0.46;66.62
77041;BME280;65974;42.664;23.264;2023-02-12T08:29:14;95405.44;;;0.38;67.08
77041;BME280;65974;42.664;23.264;2023-02-12T08:31:41;95403.06;;;0.37;66.63
77041;BME280;65974;42.664;23.264;2023-02-12T08:34:18;95409.50;;;0.44;66.64
77041;BME280;65974;42.664;23.264;2023-02-12T08:36:45;95407.16;;;0.43;66.47
77041;BME280;65974;42.664;23.264;2023-02-12T08:39:12;95419.50;;;0.42;66.82
77041;BME280;65974;42.664;23.264;2023-02-12T08:41:37;95418.91;;;0.45;66.96
77041;BME280;65974;42.664;23.264;2023-02-12T08:44:04;95426.19;;;0.48;66.56
77041;BME280;65974;42.664;23.264;2023-02-12T08:46:35;95425.13;;;0.49;66.60
77041;BME280;65974;42.664;23.264;2023-02-12T08:49:06;95432.97;;;0.49;67.04
77041;BME280;65974;42.664;23.264;2023-02-12T08:51:35;95437.16;;;0.50;67.29
77041;BME280;65974;42.664;23.264;2023-02-12T08:54:06;95436.69;;;0.48;67.23
77041;BME280;65974;42.664;23.264;2023-02-12T08:56:33;95427.84;;;0.44;67.30
77041;BME280;65974;42.664;23.264;2023-02-12T08:59:00;95431.34;;;0.40;68.03
77041;BME280;65974;42.664;23.264;2023-02-12T09:01:29;95435.59;;;0.49;67.07
77041;BME280;65974;42.664;23.264;2023-02-12T09:03:55;95435.59;;;0.49;67.55
77041;BME280;65974;42.664;23.264;2023-02-12T09:06:22;95443.38;;;0.54;67.16
77041;BME280;65974;42.664;23.264;2023-02-12T09:08:48;95444.44;;;0.53;67.67
77041;BME280;65974;42.664;23.264;2023-02-12T09:11:20;95454.53;;;0.60;67.13
77041;BME280;65974;42.664;23.264;2023-02-12T09:13:48;95455.50;;;0.64;67.87
77041;BME280;65974;42.664;23.264;2023-02-12T09:16:14;95449.53;;;0.63;66.94
77041;BME280;65974;42.664;23.264;2023-02-12T09:18:40;95459.22;;;0.63;67.42
77041;BME280;65974;42.664;23.264;2023-02-12T09:21:11;95461.34;;;0.61;68.26
77041;BME280;65974;42.664;23.264;2023-02-12T09:23:36;95464.28;;;0.59;67.75
77041;BME280;65974;42.664;23.264;2023-02-12T09:26:04;95462.63;;;0.63;67.51
77041;BME280;65974;42.664;23.264;2023-02-12T09:28:30;95462.22;;;0.56;67.86
77041;BME280;65974;42.664;23.264;2023-02-12T09:30:56;95462.97;;;0.43;68.31
77041;BME280;65974;42.664;23.264;2023-02-12T09:33:22;95456.66;;;0.44;68.55
77041;BME280;65974;42.664;23.264;2023-02-12T09:35:47;95456.28;;;0.51;68.09
77041;BME280;65974;42.664;23.264;2023-02-12T09:38:13;95456.00;;;0.52;68.85
77041;BME280;65974;42.664;23.264;2023-02-12T09:51:14;95466.22;;;0.67;67.67
77041;BME280;65974;42.664;23.264;2023-02-12T09:53:43;95467.00;;;0.68;69.31
77041;BME280;65974;42.664;23.264;2023-02-12T09:56:16;95479.03;;;0.55;67.69
77041;BME280;65974;42.664;23.264;2023-02-12T09:58:51;95473.84;;;0.50;68.44
77041;BME280;65974;42.664;23.264;2023-02-12T10:01:20;95481.66;;;0.55;68.67
77041;BME280;65974;42.664;23.264;2023-02-12T10:03:50;95471.91;;;0.42;68.55
77041;BME280;65974;42.664;23.264;2023-02-12T10:11:49;95471.53;;;0.62;68.78
77041;BME280;65974;42.664;23.264;2023-02-12T10:20:17;95489.41;;;0.60;68.72
77041;BME280;65974;42.664;23.264;2023-02-12T10:28:08;95462.72;;;0.86;68.52
77041;BME280;65974;42.664;23.264;2023-02-12T10:30:45;95464.00;;;1.02;67.87
77041;BME280;65974;42.664;23.264;2023-02-12T10:33:16;95468.97;;;1.03;67.85
77041;BME280;65974;42.664;23.264;2023-02-12T10:35:50;95472.66;;;1.02;67.47
77041;BME280;65974;42.664;23.264;2023-02-12T10:38:22;95462.16;;;1.02;67.92
77041;BME280;65974;42.664;23.264;2023-02-12T10:40:50;95473.63;;;1.06;67.81
77041;BME280;65974;42.664;23.264;2023-02-12T10:43:16;95472.94;;;1.14;67.94
77041;BME280;65974;42.664;23.264;2023-02-12T10:45:42;95471.75;;;1.07;67.66
77041;BME280;65974;42.664;23.264;2023-02-12T10:48:16;95472.25;;;1.09;68.01
77041;BME280;65974;42.664;23.264;2023-02-12T10:53:43;95474.56;;;1.24;68.17
77041;BME280;65974;42.664;23.264;2023-02-12T10:58:50;95473.03;;;1.23;67.82
77041;BME280;65974;42.664;23.264;2023-02-12T11:01:23;95470.19;;;1.33;67.42
77041;BME280;65974;42.664;23.264;2023-02-12T11:03:50;95473.88;;;1.45;67.32
77041;BME280;65974;42.664;23.264;2023-02-12T11:06:18;95474.03;;;1.63;66.68
77041;BME280;65974;42.664;23.264;2023-02-12T11:08:45;95477.84;;;1.70;66.36
77041;BME280;65974;42.664;23.264;2023-02-12T11:11:15;95474.97;;;1.80;65.96
77041;BME280;65974;42.664;23.264;2023-02-12T11:16:31;95473.31;;;1.84;66.19
77041;BME280;65974;42.664;23.264;2023-02-12T11:18:59;95477.06;;;1.92;65.84
77041;BME280;65974;42.664;23.264;2023-02-12T11:21:25;95470.34;;;1.99;65.35
77041;BME280;65974;42.664;23.264;2023-02-12T11:23:50;95462.06;;;2.06;65.11
77041;BME280;65974;42.664;23.264;2023-02-12T11:28:53;95468.50;;;2.22;64.58
77041;BME280;65974;42.664;23.264;2023-02-12T11:34:06;95465.03;;;2.35;64.36
77041;BME280;65974;42.664;23.264;2023-02-12T11:36:35;95466.66;;;2.45;64.20
77041;BME280;65974;42.664;23.264;2023-02-12T11:39:02;95470.56;;;2.56;64.44
77041;BME280;65974;42.664;23.264;2023-02-12T11:41:32;95469.50;;;2.57;63.53
77041;BME280;65974;42.664;23.264;2023-02-12T11:46:48;95465.91;;;2.83;61.84
77041;BME280;65974;42.664;23.264;2023-02-12T11:49:21;95456.34;;;2.87;62.28
77041;BME280;65974;42.664;23.264;2023-02-12T11:51:48;95458.78;;;2.84;61.69
77041;BME280;65974;42.664;23.264;2023-02-12T11:54:41;95460.56;;;2.66;63.11
77041;BME280;65974;42.664;23.264;2023-02-12T11:59:56;95464.47;;;2.77;63.37
77041;BME280;65974;42.664;23.264;2023-02-12T12:02:31;95466.88;;;2.87;62.08
77041;BME280;65974;42.664;23.264;2023-02-12T12:05:20;95458.41;;;3.07;61.76
77041;BME280;65974;42.664;23.264;2023-02-12T12:07:58;95461.09;;;3.16;60.78
77041;BME280;65974;42.664;23.264;2023-02-12T12:10:45;95463.91;;;3.28;60.47
77041;BME280;65974;42.664;23.264;2023-02-12T12:13:15;95473.34;;;3.29;60.28
77041;BME280;65974;42.664;23.264;2023-02-12T12:15:50;95473.34;;;3.29;60.39
77041;BME280;65974;42.664;23.264;2023-02-12T12:21:38;95473.34;;;3.29;60.23
77041;BME280;65974;42.664;23.264;2023-02-12T12:26:46;95468.88;;;3.30;60.12
77041;BME280;65974;42.664;23.264;2023-02-12T12:31:48;95484.81;;;3.25;59.52
77041;BME280;65974;42.664;23.264;2023-02-12T12:34:18;95484.66;;;3.21;59.85
77041;BME280;65974;42.664;23.264;2023-02-12T12:37:16;95479.50;;;3.16;60.04
77041;BME280;65974;42.664;23.264;2023-02-12T12:48:34;95491.56;;;3.08;60.50
77041;BME280;65974;42.664;23.264;2023-02-12T12:51:31;95491.69;;;3.03;60.35
77041;BME280;65974;42.664;23.264;2023-02-12T13:23:47;95515.88;;;2.83;62.25
77041;BME280;65974;42.664;23.264;2023-02-12T13:26:32;95515.41;;;2.81;62.03
77041;BME280;65974;42.664;23.264;2023-02-12T13:29:14;95525.66;;;2.83;62.60
77041;BME280;65974;42.664;23.264;2023-02-12T13:31:52;95521.50;;;2.90;62.07
77041;BME280;65974;42.664;23.264;2023-02-12T13:34:19;95524.00;;;2.95;62.20
77041;BME280;65974;42.664;23.264;2023-02-12T13:36:48;95520.13;;;2.93;61.77
77041;BME280;65974;42.664;23.264;2023-02-12T13:39:33;95517.00;;;2.91;62.70
77041;BME280;65974;42.664;23.264;2023-02-12T13:44:57;95526.91;;;2.94;62.34
77041;BME280;65974;42.664;23.264;2023-02-12T13:52:37;95534.97;;;2.89;62.19
77041;BME280;65974;42.664;23.264;2023-02-12T13:57:37;95540.16;;;2.80;62.39
77041;BME280;65974;42.664;23.264;2023-02-12T14:00:03;95525.94;;;2.81;63.16
77041;BME280;65974;42.664;23.264;2023-02-12T14:05:04;95538.78;;;2.83;62.71
77041;BME280;65974;42.664;23.264;2023-02-12T14:07:41;95539.75;;;2.87;62.68
77041;BME280;65974;42.664;23.264;2023-02-12T14:10:19;95544.69;;;2.88;63.13
77041;BME280;65974;42.664;23.264;2023-02-12T14:12:44;95549.13;;;2.79;62.25
77041;BME280;65974;42.664;23.264;2023-02-12T14:15:31;95551.00;;;2.79;62.21
77041;BME280;65974;42.664;23.264;2023-02-12T14:20:37;95559.94;;;2.78;61.84
77041;BME280;65974;42.664;23.264;2023-02-12T14:23:27;95562.28;;;2.79;62.23
77041;BME280;65974;42.664;23.264;2023-02-12T14:25:58;95565.38;;;2.81;62.47
77041;BME280;65974;42.664;23.264;2023-02-12T14:28:54;95575.72;;;2.78;62.90
77041;BME280;65974;42.664;23.264;2023-02-12T14:31:29;95574.78;;;2.74;63.27
77041;BME280;65974;42.664;23.264;2023-02-12T14:38:59;95589.25;;;2.85;62.90
77041;BME280;65974;42.664;23.264;2023-02-12T14:41:28;95589.25;;;2.85;62.58
77041;BME280;65974;42.664;23.264;2023-02-12T14:46:52;95597.31;;;2.88;61.94
77041;BME280;65974;42.664;23.264;2023-02-12T14:54:33;95592.34;;;2.87;62.16
77041;BME280;65974;42.664;23.264;2023-02-12T14:57:04;95603.19;;;2.85;62.12
77041;BME280;65974;42.664;23.264;2023-02-12T14:59:33;95606.22;;;2.79;62.94
77041;BME280;65974;42.664;23.264;2023-02-12T15:02:01;95609.44;;;2.76;62.46
77041;BME280;65974;42.664;23.264;2023-02-12T15:04:35;95607.59;;;2.76;63.01
77041;BME280;65974;42.664;23.264;2023-02-12T15:07:11;95612.25;;;2.79;62.23
77041;BME280;65974;42.664;23.264;2023-02-12T15:09:45;95619.66;;;2.77;63.47
77041;BME280;65974;42.664;23.264;2023-02-12T15:12:19;95626.44;;;2.70;62.89
77041;BME280;65974;42.664;23.264;2023-02-12T15:15:41;95637.34;;;2.63;64.00
77041;BME280;65974;42.664;23.264;2023-02-12T15:17:56;95636.50;;;2.54;64.33
77041;BME280;65974;42.664;23.264;2023-02-12T15:20:33;95638.34;;;2.54;64.12
77041;BME280;65974;42.664;23.264;2023-02-12T15:23:36;95656.88;;;2.49;64.98
77041;BME280;65974;42.664;23.264;2023-02-12T15:26:03;95660.41;;;2.44;64.78
77041;BME280;65974;42.664;23.264;2023-02-12T15:28:33;95667.09;;;2.50;64.73
77041;BME280;65974;42.664;23.264;2023-02-12T15:31:02;95671.69;;;2.45;64.79
77041;BME280;65974;42.664;23.264;2023-02-12T15:33:32;95671.69;;;2.45;64.72
77041;BME280;65974;42.664;23.264;2023-02-12T15:36:02;95678.50;;;2.46;64.89
77041;BME280;65974;42.664;23.264;2023-02-12T15:38:36;95684.13;;;2.53;64.85
77041;BME280;65974;42.664;23.264;2023-02-12T15:41:03;95687.81;;;2.52;64.80
77041;BME280;65974;42.664;23.264;2023-02-12T15:43:31;95687.00;;;2.43;65.13
77041;BME280;65974;42.664;23.264;2023-02-12T15:46:03;95687.47;;;2.45;65.32
77041;BME280;65974;42.664;23.264;2023-02-12T15:48:34;95691.84;;;2.49;64.94
77041;BME280;65974;42.664;23.264;2023-02-12T15:53:49;95690.91;;;2.31;66.29
77041;BME280;65974;42.664;23.264;2023-02-12T15:56:18;95689.72;;;2.24;67.21
77041;BME280;65974;42.664;23.264;2023-02-12T15:58:53;95698.47;;;2.19;66.05
77041;BME280;65974;42.664;23.264;2023-02-12T16:01:25;95698.00;;;2.17;66.10